Time;durP1;ratioP1;P1;durP2;ratioP2;P2;SDS_P1;SDS_P2;PMS_P1;PMS_P2;Temp;Humidity;BMP_temperature;BMP_pressure;BME280_temperature;BME280_humidity;BME280_pressure;Samples;Min_cycle;Max_cycle;Signal;HPM_P1;HPM_P2
2022/07/21 00:00:26;;;;;;;0.50;0.50;;;22.50;48.00;;;23.19;34.71;95129.69;5032210;28;20351;-79
2022/07/21 00:02:55;;;;;;;0.50;0.50;;;22.50;48.20;;;23.16;34.67;95125.66;5028905;28;20700;-78
2022/07/21 00:05:25;;;;;;;0.30;0.30;;;22.50;48.30;;;23.17;34.75;95119.25;5032706;28;20314;-77
2022/07/21 00:07:53;;;;;;;0.45;0.45;;;22.50;48.30;;;23.15;34.79;95116.00;5033553;28;20206;-79
2022/07/21 00:10:23;;;;;;;0.40;0.40;;;22.40;48.40;;;23.12;35.16;95119.22;5022806;28;20203;-78
2022/07/21 00:12:51;;;;;;;0.30;0.30;;;22.40;48.40;;;23.13;35.10;95128.03;5033579;28;20218;-78
2022/07/21 00:15:21;;;;;;;0.40;0.40;;;22.40;48.40;;;23.09;35.24;95122.41;4999511;28;20232;-79
2022/07/21 00:17:50;;;;;;;0.40;0.40;;;22.40;48.50;;;23.09;35.21;95117.06;5013045;28;20203;-79
2022/07/21 00:20:18;;;;;;;0.40;0.40;;;22.40;48.50;;;23.11;35.20;95119.50;5015698;28;20207;-78
2022/07/21 00:22:46;;;;;;;0.40;0.40;;;22.40;48.60;;;23.11;34.73;95111.47;5026149;28;20208;-79
2022/07/21 00:25:14;;;;;;;0.32;0.32;;;22.30;49.90;;;23.13;34.97;95120.00;5013140;28;20207;-79
2022/07/21 00:27:42;;;;;;;0.30;0.30;;;22.30;48.60;;;23.12;35.13;95121.09;5013390;28;20219;-78
2022/07/21 00:30:11;;;;;;;0.40;0.40;;;22.40;48.70;;;23.11;35.21;95122.19;5001729;28;20199;-79
2022/07/21 00:32:39;;;;;;;0.40;0.40;;;22.30;48.70;;;23.12;35.22;95124.56;4997505;28;20222;-79
2022/07/21 00:35:09;;;;;;;0.50;0.50;;;22.30;48.90;;;23.12;35.50;95124.56;5031483;28;20218;-79
2022/07/21 00:37:39;;;;;;;0.50;0.50;;;22.30;49.30;;;23.13;35.45;95130.72;5015958;28;20662;-79
2022/07/21 00:40:08;;;;;;;0.30;0.30;;;22.30;48.90;;;23.11;35.53;95122.97;5032014;28;20208;-78
2022/07/21 00:42:36;;;;;;;0.40;0.40;;;22.30;49.00;;;23.08;35.12;95122.69;5032033;28;20196;-79
2022/07/21 00:45:06;;;;;;;0.40;0.40;;;22.30;49.00;;;23.07;35.46;95131.78;5032855;28;20184;-79
2022/07/21 00:47:34;;;;;;;0.40;0.40;;;22.30;49.10;;;23.06;35.77;95122.97;5000538;28;20578;-79
2022/07/21 00:50:08;;;;;;;0.40;0.40;;;22.30;49.10;;;23.03;35.30;95120.81;4999859;28;20671;-79
2022/07/21 00:52:35;;;;;;;0.40;0.40;;;22.30;49.30;;;23.00;35.52;95116.00;5000577;28;20207;-78
2022/07/21 00:55:04;;;;;;;0.45;0.45;;;22.30;49.20;;;22.99;35.46;95122.41;4996506;28;20227;-78
2022/07/21 00:57:32;;;;;;;0.50;0.50;;;22.30;49.30;;;22.96;35.39;95121.09;4996842;28;20193;-78
2022/07/21 00:59:59;;;;;;;0.30;0.30;;;22.30;49.20;;;22.93;35.06;95112.78;4995747;28;20205;-79
2022/07/21 01:02:28;;;;;;;0.40;0.40;;;22.20;49.20;;;22.91;34.95;95115.72;4999877;28;20293;-79
2022/07/21 01:04:55;;;;;;;0.40;0.40;;;22.20;49.30;;;22.87;35.72;95109.28;4994151;28;20200;-78
2022/07/21 01:07:23;;;;;;;0.40;0.40;;;22.20;49.40;;;22.83;35.40;95114.34;5011732;28;20699;-79
2022/07/21 01:09:50;;;;;;;0.30;0.30;;;22.10;49.40;;;22.79;36.03;95121.31;5012718;28;20639;-78
2022/07/21 01:12:17;;;;;;;0.30;0.30;;;22.10;49.80;;;22.72;35.94;95118.09;4996102;28;20232;-79
2022/07/21 01:14:45;;;;;;;0.50;0.50;;;22.10;49.90;;;22.63;36.38;95120.47;5004727;28;20226;-78
2022/07/21 01:17:12;;;;;;;0.40;0.40;;;22.00;51.20;;;22.57;36.52;95128.72;4999787;28;20230;-78
2022/07/21 01:19:39;;;;;;;0.40;0.40;;;22.00;50.30;;;22.47;36.94;95130.31;5032209;28;20676;-79
2022/07/21 01:22:07;;;;;;;0.40;0.40;;;21.90;50.70;;;22.41;37.21;95128.69;4997342;28;20688;-78
2022/07/21 01:24:34;;;;;;;0.38;0.38;;;21.90;50.60;;;22.34;36.66;95128.88;5032237;28;20210;-79
2022/07/21 01:27:01;;;;;;;0.30;0.30;;;21.80;50.40;;;22.30;36.57;95125.13;5023806;28;20344;-80
2022/07/21 01:29:29;;;;;;;0.40;0.40;;;21.70;50.10;;;22.29;36.43;95131.53;5028591;28;20273;-79
2022/07/21 01:31:56;;;;;;;0.40;0.40;;;21.70;50.30;;;22.26;36.51;95132.03;5012141;28;20226;-79
2022/07/21 01:34:23;;;;;;;0.40;0.40;;;21.60;50.30;;;22.24;37.04;95134.19;5007394;28;20204;-78
2022/07/21 01:36:50;;;;;;;0.40;0.40;;;21.60;50.50;;;22.21;36.82;95132.03;5011308;28;20583;-79
2022/07/21 01:42:04;;;;;;;0.50;0.50;;;21.60;50.50;;;22.21;37.11;95132.03;5018853;28;20222;-78
2022/07/21 01:44:32;;;;;;;0.50;0.50;;;21.50;51.10;;;22.17;37.26;95122.94;5015245;28;20263;-78
2022/07/21 01:46:59;;;;;;;0.40;0.40;;;21.50;50.90;;;22.14;37.11;95118.94;5015213;28;20223;-79
2022/07/21 01:49:26;;;;;;;0.40;0.40;;;21.50;51.00;;;22.07;37.23;95113.00;5012392;28;20188;-79
2022/07/21 01:51:54;;;;;;;0.30;0.30;;;21.40;51.00;;;22.04;36.77;95116.97;4995967;28;20222;-79
2022/07/21 01:54:21;;;;;;;0.50;0.50;;;21.40;51.00;;;21.96;37.11;95106.81;5006761;28;20198;-78
2022/07/21 01:56:51;;;;;;;0.40;0.40;;;21.40;51.00;;;21.93;37.50;95112.66;5011790;28;20231;-79
2022/07/21 01:59:19;;;;;;;0.35;0.35;;;21.30;51.10;;;21.87;37.36;95108.34;5012194;28;20231;-79
2022/07/21 02:01:46;;;;;;;0.40;0.40;;;21.30;51.20;;;21.82;36.93;95109.13;5012791;28;20591;-78
2022/07/21 02:04:14;;;;;;;0.40;0.40;;;21.20;51.20;;;21.77;37.25;95106.41;5014854;28;20334;-78
2022/07/21 02:06:41;;;;;;;0.40;0.40;;;21.20;51.50;;;21.70;37.56;95101.31;5031528;28;20208;-80
2022/07/21 02:09:08;;;;;;;0.32;0.32;;;21.10;51.60;;;21.65;37.57;95100.47;5030245;28;20191;-79
2022/07/21 02:11:36;;;;;;;0.40;0.40;;;21.10;51.60;;;21.61;37.48;95105.53;5002635;28;20205;-79
2022/07/21 02:14:04;;;;;;;0.50;0.50;;;21.10;51.90;;;21.59;37.96;95110.31;5013050;28;20188;-78
2022/07/21 02:16:32;;;;;;;0.40;0.40;;;21.00;51.80;;;21.55;37.78;95104.63;5031467;28;20267;-78
2022/07/21 02:19:00;;;;;;;0.50;0.50;;;21.00;52.00;;;21.51;38.48;95098.22;5011450;28;20205;-77
2022/07/21 02:21:27;;;;;;;0.60;0.60;;;20.90;52.30;;;21.48;38.45;95100.59;4994493;28;20249;-79
2022/07/21 02:23:54;;;;;;;0.40;0.40;;;20.90;52.30;;;21.47;37.97;95112.31;5023927;28;20212;-79
2022/07/21 02:26:21;;;;;;;0.45;0.45;;;20.90;52.30;;;21.46;38.34;95116.03;5014951;28;20567;-78
2022/07/21 02:28:48;;;;;;;0.43;0.43;;;20.80;52.30;;;21.43;38.39;95104.03;5014581;28;20207;-79
2022/07/21 02:31:16;;;;;;;0.40;0.40;;;20.80;53.50;;;21.41;38.50;95112.28;4996091;28;20216;-78
2022/07/21 02:33:44;;;;;;;0.40;0.40;;;20.90;52.50;;;21.42;38.47;95102.41;4978805;28;20204;-78
2022/07/21 02:36:11;;;;;;;0.40;0.40;;;20.80;52.60;;;21.41;38.70;95100.78;5011236;28;20650;-78
2022/07/21 02:38:39;;;;;;;0.40;0.40;;;20.80;52.70;;;21.40;38.60;95107.22;5011652;28;20638;-79
2022/07/21 02:41:06;;;;;;;0.40;0.40;;;20.80;52.80;;;21.38;38.68;95104.00;5010713;28;20216;-78
2022/07/21 02:43:33;;;;;;;0.40;0.40;;;20.70;52.70;;;21.37;38.42;95111.22;5011370;28;20565;-79
2022/07/21 02:46:00;;;;;;;0.40;0.40;;;20.70;52.60;;;21.35;38.80;95109.81;5012375;28;20242;-79
2022/07/21 02:48:27;;;;;;;0.40;0.40;;;20.80;52.80;;;21.33;38.46;95120.75;5014240;28;20664;-79
2022/07/21 02:50:55;;;;;;;0.40;0.40;;;20.70;52.70;;;21.31;38.69;95122.06;4995045;28;20260;-79
2022/07/21 02:53:23;;;;;;;0.45;0.45;;;20.70;53.00;;;21.29;38.94;95122.34;5030719;28;20298;-79
2022/07/21 02:55:52;;;;;;;0.40;0.40;;;20.70;53.10;;;21.27;39.13;95133.25;5030669;28;20228;-79
2022/07/21 02:58:28;;;;;;;0.40;0.40;;;20.70;53.40;;;21.25;39.49;95127.38;5014707;28;20204;-79
2022/07/21 03:01:05;;;;;;;0.40;0.40;;;20.70;54.90;;;21.25;39.69;95142.56;5029958;28;20215;-78
2022/07/21 03:03:36;;;;;;;0.50;0.50;;;20.70;54.00;;;21.24;39.60;95160.44;5013348;28;20200;-79
2022/07/21 03:06:04;;;;;;;0.43;0.43;;;20.70;53.60;;;21.24;39.22;95179.13;5013058;28;20216;-79
2022/07/21 03:08:33;;;;;;;0.60;0.60;;;20.70;53.60;;;21.27;40.14;95191.94;4994708;28;20200;-79
2022/07/21 03:11:00;;;;;;;0.40;0.40;;;20.70;54.00;;;21.34;40.48;95186.41;4995969;28;20252;-78
2022/07/21 03:13:27;;;;;;;0.50;0.50;;;20.70;54.50;;;21.36;41.63;95196.81;5027519;28;20197;-78
2022/07/21 03:15:55;;;;;;;0.40;0.40;;;20.80;55.10;;;21.40;41.41;95198.72;4993863;28;20237;-78
2022/07/21 03:18:22;;;;;;;0.40;0.40;;;20.90;55.30;;;21.42;41.40;95203.81;4994826;28;20195;-78
2022/07/21 03:20:49;;;;;;;0.30;0.30;;;20.90;55.00;;;21.44;41.89;95199.81;5002312;28;20244;-78
2022/07/21 03:23:17;;;;;;;0.40;0.40;;;21.00;55.60;;;21.44;41.37;95183.03;5012363;28;20201;-78
2022/07/21 03:25:44;;;;;;;0.40;0.40;;;21.00;55.50;;;21.43;40.98;95176.91;5016166;28;20208;-78
2022/07/21 03:28:12;;;;;;;0.38;0.38;;;21.00;55.40;;;21.42;41.81;95172.59;5014743;28;20200;-78
2022/07/21 03:30:39;;;;;;;0.45;0.45;;;21.00;55.60;;;21.40;41.30;95166.72;4997895;28;20310;-78
2022/07/21 03:33:07;;;;;;;0.40;0.40;;;21.00;55.50;;;21.37;41.01;95185.91;5033453;28;20204;-77
2022/07/21 03:35:35;;;;;;;0.40;0.40;;;21.00;55.50;;;21.31;41.15;95165.56;5015803;28;20225;-78
2022/07/21 03:38:04;;;;;;;0.40;0.40;;;20.90;55.60;;;21.27;41.08;95175.13;5014573;28;20647;-77
2022/07/21 03:40:35;;;;;;;0.30;0.30;;;20.90;55.30;;;21.24;41.41;95175.66;5030954;28;20220;-78
2022/07/21 03:43:06;;;;;;;0.40;0.40;;;20.90;55.70;;;21.22;41.19;95175.88;4998420;28;20279;-78
2022/07/21 03:45:35;;;;;;;0.40;0.40;;;20.80;55.80;;;21.22;41.57;95178.56;5014829;28;20678;-77
2022/07/21 03:48:06;;;;;;;0.50;0.50;;;20.80;55.80;;;21.19;41.82;95168.41;5023835;28;20200;-78
2022/07/21 03:50:35;;;;;;;0.50;0.50;;;20.70;55.80;;;21.18;41.43;95165.97;4996977;28;20220;-78
2022/07/21 03:53:04;;;;;;;0.40;0.40;;;20.70;55.90;;;21.15;41.45;95163.81;5016233;28;20193;-78
2022/07/21 03:55:31;;;;;;;0.43;0.43;;;20.70;56.30;;;21.11;41.65;95166.97;5005084;28;20340;-78
2022/07/21 03:58:03;;;;;;;0.40;0.40;;;20.70;56.00;;;21.09;41.74;95170.97;5013219;28;20200;-78
2022/07/21 04:00:41;;;;;;;0.45;0.45;;;20.70;56.50;;;21.06;42.22;95188.28;5010445;28;20221;-78
2022/07/21 04:03:10;;;;;;;0.40;0.40;;;20.70;57.30;;;21.05;42.20;95181.31;5011710;28;20551;-78
2022/07/21 04:05:39;;;;;;;0.40;0.40;;;20.60;56.50;;;21.04;42.30;95174.38;5004702;28;20213;-77
2022/07/21 04:08:08;;;;;;;0.40;0.40;;;20.60;56.60;;;21.03;42.04;95174.63;5011562;28;20600;-78
2022/07/21 04:10:37;;;;;;;0.50;0.50;;;20.60;56.60;;;21.00;42.64;95172.47;5011922;28;20220;-77
2022/07/21 04:13:13;;;;;;;0.40;0.40;;;20.60;56.70;;;21.04;42.40;95171.72;5019920;28;20713;-79
2022/07/21 04:15:40;;;;;;;0.40;0.40;;;20.60;58.00;;;21.03;42.59;95178.13;5020718;28;20318;-78
2022/07/21 04:18:09;;;;;;;0.40;0.40;;;20.60;57.40;;;21.02;43.61;95191.69;5032975;28;20438;-79
2022/07/21 04:20:37;;;;;;;0.40;0.40;;;20.60;57.90;;;20.99;43.40;95187.66;5016021;28;20258;-79
2022/07/21 04:23:04;;;;;;;0.40;0.40;;;20.60;57.70;;;20.98;43.55;95175.38;5005744;28;20204;-79
2022/07/21 04:25:33;;;;;;;0.40;0.40;;;20.60;58.00;;;21.02;43.39;95181.84;5011975;28;20315;-79
2022/07/21 04:28:00;;;;;;;0.40;0.40;;;20.60;58.00;;;21.03;43.07;95199.47;4997298;28;20197;-79
2022/07/21 04:30:27;;;;;;;0.40;0.40;;;20.60;58.30;;;21.04;43.49;95203.72;4996883;28;20221;-78
2022/07/21 04:32:54;;;;;;;0.40;0.40;;;20.60;58.10;;;21.02;43.51;95197.03;5013219;28;20685;-79
2022/07/21 04:35:22;;;;;;;0.40;0.40;;;20.60;58.30;;;21.09;43.43;95205.63;5013190;28;20236;-79
2022/07/21 04:37:50;;;;;;;0.40;0.40;;;20.60;58.60;;;21.11;43.85;95204.31;5012616;28;20197;-79
2022/07/21 04:40:17;;;;;;;0.40;0.40;;;20.60;58.60;;;21.14;43.96;95196.88;5013150;28;20189;-79
2022/07/21 04:42:46;;;;;;;0.30;0.30;;;20.70;59.00;;;21.16;44.17;95200.91;5026016;28;20685;-79
2022/07/21 04:45:15;;;;;;;0.40;0.40;;;20.70;58.80;;;21.19;43.70;95208.41;5029212;28;20674;-78
2022/07/21 04:47:51;;;;;;;0.40;0.40;;;20.70;58.90;;;21.20;43.59;95209.22;5016354;28;20251;-78
2022/07/21 04:50:22;;;;;;;0.30;0.30;;;20.70;59.00;;;21.22;43.56;95197.22;5007374;28;20710;-78
2022/07/21 04:52:50;;;;;;;0.40;0.40;;;20.80;59.00;;;21.27;43.83;95205.28;5022084;28;20180;-79
2022/07/21 04:55:19;;;;;;;0.40;0.40;;;20.80;58.90;;;21.32;43.55;95199.19;5000547;28;20187;-78
2022/07/21 04:57:50;;;;;;;0.40;0.40;;;20.80;59.40;;;21.36;44.36;95200.31;5004963;28;20777;-79
2022/07/21 05:00:20;;;;;;;0.45;0.45;;;20.90;59.70;;;21.41;44.39;95203.00;5004655;28;20216;-78
2022/07/21 05:02:48;;;;;;;0.40;0.40;;;20.90;59.60;;;21.44;43.96;95196.38;5006199;28;20192;-79
2022/07/21 05:05:15;;;;;;;0.30;0.30;;;20.90;59.40;;;21.49;43.90;95193.75;5015226;28;20215;-79
2022/07/21 05:07:42;;;;;;;0.30;0.30;;;21.00;59.70;;;21.54;44.50;95198.31;4996472;28;20194;-79
2022/07/21 05:10:14;;;;;;;0.50;0.50;;;21.00;59.70;;;21.62;44.78;95207.75;5013107;28;20196;-79
2022/07/21 05:12:42;;;;;;;0.40;0.40;;;21.10;60.50;;;21.68;44.29;95196.88;5024499;28;20596;-79
2022/07/21 05:15:11;;;;;;;0.40;0.40;;;21.10;60.00;;;21.77;44.77;95207.09;5021122;28;20193;-78
2022/07/21 05:17:39;;;;;;;0.40;0.40;;;21.20;60.20;;;21.82;44.69;95202.56;5009149;28;20675;-79
2022/07/21 05:20:08;;;;;;;0.30;0.30;;;21.30;60.30;;;21.91;44.40;95213.59;4993789;28;20308;-79
2022/07/21 05:22:36;;;;;;;0.30;0.30;;;21.40;60.20;;;22.01;44.46;95208.31;5011720;28;20256;-79
2022/07/21 05:25:05;;;;;;;0.40;0.40;;;21.50;60.30;;;22.11;44.65;95212.94;4996140;28;20648;-79
2022/07/21 05:27:33;;;;;;;0.40;0.40;;;21.50;60.00;;;22.20;44.78;95215.91;4995336;28;20203;-79
2022/07/21 05:30:01;;;;;;;0.38;0.38;;;21.70;60.10;;;22.31;45.24;95212.22;5011002;28;20286;-79
2022/07/21 05:32:28;;;;;;;0.40;0.40;;;21.80;60.10;;;22.39;44.98;95213.66;4994284;28;20329;-79
2022/07/21 05:34:55;;;;;;;0.30;0.30;;;21.90;60.00;;;22.46;45.37;95205.38;5026683;28;20204;-79
2022/07/21 05:37:23;;;;;;;0.40;0.40;;;22.00;60.00;;;22.59;45.05;95210.25;5010247;28;20228;-79
2022/07/21 05:39:50;;;;;;;0.35;0.35;;;22.10;59.90;;;22.66;45.25;95212.72;4993974;28;20209;-79
2022/07/21 05:42:17;;;;;;;0.40;0.40;;;22.20;59.90;;;22.71;46.07;95210.84;5010196;28;20665;-79
2022/07/21 05:44:44;;;;;;;0.40;0.40;;;22.40;60.10;;;22.79;45.61;95214.91;4993238;28;20567;-79
2022/07/21 05:47:12;;;;;;;0.40;0.40;;;22.40;60.10;;;22.83;45.85;95220.53;4999020;28;20293;-78
2022/07/21 05:49:39;;;;;;;0.38;0.38;;;22.50;60.10;;;22.86;45.60;95199.44;5004688;28;20192;-79
2022/07/21 05:52:06;;;;;;;0.40;0.40;;;22.60;60.00;;;22.93;45.39;95206.41;5006591;28;20232;-79
2022/07/21 05:54:33;;;;;;;0.40;0.40;;;22.70;60.00;;;23.00;45.12;95207.75;5013674;28;20199;-79
2022/07/21 05:57:02;;;;;;;0.40;0.40;;;22.70;59.90;;;23.05;45.57;95201.63;5004403;28;20258;-79
2022/07/21 05:59:29;;;;;;;0.40;0.40;;;22.80;60.00;;;23.13;45.34;95203.78;4998631;28;20197;-78
2022/07/21 06:01:56;;;;;;;0.30;0.30;;;22.80;59.90;;;23.18;45.33;95211.84;5006128;28;20230;-79
2022/07/21 06:04:24;;;;;;;0.30;0.30;;;22.90;59.80;;;23.25;45.45;95208.91;5021207;28;20614;-79
2022/07/21 06:06:52;;;;;;;0.40;0.40;;;22.90;59.70;;;23.33;45.10;95212.94;5007578;28;20312;-79
2022/07/21 06:09:20;;;;;;;0.30;0.30;;;23.00;59.60;;;23.41;44.95;95215.09;5006591;28;20196;-79
2022/07/21 06:11:51;;;;;;;0.30;0.30;;;23.10;59.50;;;23.50;44.74;95207.34;5018319;28;20224;-78
2022/07/21 06:14:19;;;;;;;0.32;0.32;;;23.20;59.70;;;23.58;44.60;95200.66;5004877;28;20204;-81
2022/07/21 06:16:47;;;;;;;0.40;0.40;;;23.30;59.40;;;23.73;44.23;95197.16;5008442;28;20270;-79
2022/07/21 06:19:15;;;;;;;0.40;0.40;;;23.40;59.60;;;23.85;44.52;95200.38;4991854;28;20246;-79
2022/07/21 06:21:42;;;;;;;0.40;0.40;;;23.40;59.50;;;23.98;44.09;95193.69;5017195;28;20236;-80
2022/07/21 06:24:13;;;;;;;0.30;0.30;;;23.50;59.10;;;24.11;43.83;95195.03;5007101;28;20567;-79
2022/07/21 06:26:40;;;;;;;0.30;0.30;;;23.60;58.70;;;24.22;43.59;95203.88;5011155;28;20217;-78
2022/07/21 06:29:08;;;;;;;0.40;0.40;;;23.80;58.70;;;24.35;43.27;95184.53;5020229;28;20292;-78
2022/07/21 06:31:36;;;;;;;0.40;0.40;;;23.90;58.30;;;24.53;43.00;95193.06;5009462;28;20688;-78
2022/07/21 06:34:03;;;;;;;0.30;0.30;;;24.00;58.30;;;24.67;42.92;95190.59;4993620;28;20669;-78
2022/07/21 06:36:30;;;;;;;0.40;0.40;;;24.20;58.10;;;24.81;42.88;95191.63;5026337;28;20224;-78
2022/07/21 06:38:58;;;;;;;0.43;0.43;;;24.20;58.00;;;24.94;42.48;95190.22;5026076;28;20203;-78
2022/07/21 06:41:25;;;;;;;0.30;0.30;;;24.40;58.00;;;25.07;42.02;95197.66;4994117;28;20225;-78
2022/07/21 06:43:52;;;;;;;0.30;0.30;;;24.60;57.60;;;25.20;41.85;95198.13;4993565;28;20212;-79
2022/07/21 06:46:20;;;;;;;0.60;0.60;;;24.70;57.50;;;25.34;41.85;95191.06;4994844;28;20224;-79
2022/07/21 06:48:47;;;;;;;0.25;0.25;;;24.90;57.30;;;25.46;41.09;95190.72;4978917;28;20197;-79
2022/07/21 06:51:14;;;;;;;0.30;0.30;;;24.90;56.70;;;25.57;41.50;95188.78;5003827;28;20299;-79
2022/07/21 06:53:42;;;;;;;0.30;0.30;;;25.10;56.80;;;25.73;41.54;95187.59;5027108;28;20240;-80
2022/07/21 06:56:09;;;;;;;0.30;0.30;;;25.20;56.70;;;25.85;41.21;95186.41;5014812;28;20320;-79
2022/07/21 06:58:36;;;;;;;0.30;0.30;;;25.30;56.80;;;26.00;41.58;95201.59;5018925;28;20633;-79
2022/07/21 07:01:18;;;;;;;0.40;0.40;;;25.40;56.50;;;26.10;40.57;95198.03;5033700;28;20582;-80
2022/07/21 07:03:46;;;;;;;0.30;0.30;;;25.60;55.90;;;26.21;40.63;95205.72;4991619;28;20202;-80
2022/07/21 07:06:14;;;;;;;0.30;0.30;;;25.70;56.00;;;26.31;40.28;95196.75;5015110;28;20235;-79
2022/07/21 07:08:41;;;;;;;0.30;0.30;;;25.80;55.70;;;26.41;40.49;95197.72;4998378;28;20707;-80
2022/07/21 07:11:19;;;;;;;0.30;0.30;;;25.90;55.80;;;26.52;40.67;95201.91;5006504;28;20224;-80
2022/07/21 07:13:47;;;;;;;0.30;0.30;;;26.00;55.80;;;26.59;40.37;95210.44;5003929;28;20217;-80
2022/07/21 07:16:27;;;;;;;0.40;0.40;;;26.10;55.50;;;26.69;40.04;95201.44;5034465;28;20237;-80
2022/07/21 07:18:55;;;;;;;0.30;0.30;;;26.20;55.10;;;26.76;40.41;95207.31;5000208;28;20191;-79
2022/07/21 07:21:23;;;;;;;0.30;0.30;;;26.30;55.30;;;26.86;39.98;95210.97;4997844;28;20315;-80
2022/07/21 07:23:50;;;;;;;0.30;0.30;;;26.40;55.10;;;26.93;39.95;95219.50;5007479;28;20191;-79
2022/07/21 07:26:17;;;;;;;0.30;0.30;;;26.50;55.10;;;27.00;40.08;95220.75;5011042;28;20219;-79
2022/07/21 07:28:44;;;;;;;0.30;0.30;;;26.60;55.00;;;27.09;40.47;95225.47;5017465;28;20292;-79
2022/07/21 07:31:12;;;;;;;0.30;0.30;;;26.60;55.30;;;27.15;40.50;95218.94;5012262;28;20308;-79
2022/07/21 07:33:39;;;;;;;0.28;0.28;;;26.70;55.00;;;27.21;39.97;95227.72;5012227;28;20658;-80
2022/07/21 07:36:10;;;;;;;0.30;0.30;;;26.80;54.70;;;27.25;40.07;95221.47;5018158;28;20227;-80
2022/07/21 07:38:39;;;;;;;0.30;0.30;;;26.90;54.90;;;27.32;40.45;95221.91;5018548;28;20234;-79
2022/07/21 07:41:06;;;;;;;0.30;0.30;;;26.90;55.20;;;27.38;39.81;95236.13;4999571;28;20647;-79
2022/07/21 07:43:33;;;;;;;0.30;0.30;;;27.00;54.90;;;27.43;40.13;95232.59;5017858;28;20206;-80
2022/07/21 07:46:01;;;;;;;0.30;0.30;;;27.10;55.00;;;27.48;40.11;95229.81;5017890;28;20724;-78
2022/07/21 07:48:31;;;;;;;0.30;0.30;;;27.10;55.20;;;27.52;40.51;95232.72;5014142;28;20224;-79
2022/07/21 07:50:58;;;;;;;0.30;0.30;;;27.20;55.30;;;27.54;40.65;95235.91;5016883;28;20232;-80
2022/07/21 07:53:25;;;;;;;0.30;0.30;;;27.20;55.60;;;27.59;40.85;95233.97;5033084;28;20206;-80
2022/07/21 07:55:52;;;;;;;0.20;0.20;;;27.30;55.80;;;27.63;41.29;95244.97;5016559;28;20596;-80
2022/07/21 07:58:19;;;;;;;0.30;0.30;;;27.30;56.00;;;27.69;41.63;95248.38;5000187;28;20220;-80
2022/07/21 08:00:47;;;;;;;0.22;0.22;;;27.40;56.10;;;27.73;41.15;95239.41;5017709;28;20223;-80
2022/07/21 08:03:24;;;;;;;0.30;0.30;;;27.40;56.10;;;27.77;41.22;95240.44;5033986;28;20191;-79
2022/07/21 08:05:53;;;;;;;0.22;0.22;;;27.40;55.60;;;27.80;41.00;95245.22;5015244;28;20323;-80
2022/07/21 08:08:22;;;;;;;0.30;0.30;;;27.50;55.50;;;27.86;41.06;95248.66;5025514;28;20190;-80
2022/07/21 08:10:49;;;;;;;0.30;0.30;;;27.60;55.70;;;27.90;41.01;95241.56;5033578;28;20220;-80
2022/07/21 08:13:18;;;;;;;0.30;0.30;;;27.60;55.60;;;27.99;41.22;95246.28;5016358;28;20213;-80
2022/07/21 08:15:47;;;;;;;0.30;0.30;;;27.60;55.90;;;28.02;40.87;95253.78;5031322;28;20262;-80
2022/07/21 08:18:15;;;;;;;0.30;0.30;;;27.70;55.40;;;28.03;41.29;95253.50;4997352;28;20235;-80
2022/07/21 08:20:44;;;;;;;0.30;0.30;;;27.70;55.60;;;28.11;40.97;95250.16;4997194;28;20223;-80
2022/07/21 08:23:12;;;;;;;0.30;0.30;;;27.80;55.70;;;28.19;41.37;95250.59;5020123;28;20213;-79
2022/07/21 08:25:41;;;;;;;0.38;0.38;;;27.80;55.80;;;28.28;41.55;95256.88;5032924;28;20223;-79
2022/07/21 08:28:09;;;;;;;0.20;0.20;;;27.90;55.90;;;28.39;41.06;95238.63;5011662;28;20212;-79
2022/07/21 08:30:37;;;;;;;0.20;0.20;;;28.00;56.10;;;28.52;41.25;95253.25;5013722;28;20227;-80
2022/07/21 08:33:05;;;;;;;0.30;0.30;;;28.10;55.90;;;28.64;41.26;95250.84;5025916;28;20200;-80
2022/07/21 08:35:33;;;;;;;0.20;0.20;;;28.10;55.90;;;28.75;40.81;95254.97;4997588;28;20223;-79
2022/07/21 08:38:06;;;;;;;0.30;0.30;;;28.30;55.80;;;28.86;40.20;95254.78;5012790;28;20241;-79
2022/07/21 08:40:38;;;;;;;0.30;0.30;;;28.40;55.40;;;28.95;40.18;95252.19;5030818;28;20220;-79
2022/07/21 08:43:08;;;;;;;0.30;0.30;;;28.50;55.10;;;29.00;40.17;95258.28;5029120;28;20215;-79
2022/07/21 08:45:39;;;;;;;0.30;0.30;;;28.50;55.10;;;29.06;39.99;95243.56;5013930;28;20246;-79
2022/07/21 08:48:08;;;;;;;0.20;0.20;;;28.60;54.90;;;29.18;40.08;95245.75;5029177;28;20578;-80
2022/07/21 08:50:39;;;;;;;0.30;0.30;;;28.70;55.20;;;29.28;39.79;95246.63;5013406;28;20233;-80
2022/07/21 08:53:07;;;;;;;0.20;0.20;;;28.80;54.80;;;29.40;39.94;95249.63;5013245;28;20193;-80
2022/07/21 08:55:39;;;;;;;0.20;0.20;;;28.90;55.00;;;29.49;39.72;95245.13;4982114;28;20742;-79
2022/07/21 08:58:12;;;;;;;0.30;0.30;;;29.00;54.80;;;29.58;39.70;95242.47;5001997;28;20221;-80
2022/07/21 09:00:44;;;;;;;0.30;0.30;;;29.10;55.00;;;29.71;40.70;95233.53;5015925;28;20395;-80
2022/07/21 09:03:16;;;;;;;0.30;0.30;;;29.20;55.40;;;29.82;40.17;95242.19;5016283;28;20183;-80
2022/07/21 09:06:11;;;;;;;0.30;0.30;;;29.30;55.00;;;29.93;39.41;95245.50;5011215;28;20237;-80
2022/07/21 09:08:49;;;;;;;0.30;0.30;;;29.40;54.30;;;30.02;39.35;95248.25;5014543;28;20217;-80
2022/07/21 09:11:25;;;;;;;0.30;0.30;;;29.50;53.80;;;30.09;38.57;95245.09;5016166;28;20222;-80
2022/07/21 09:14:18;;;;;;;0.30;0.30;;;29.60;53.50;;;30.16;39.16;95237.34;5016314;28;20194;-80
2022/07/21 09:16:53;;;;;;;0.30;0.30;;;29.70;53.50;;;30.23;38.46;95234.22;4996528;28;20692;-79
2022/07/21 09:19:25;;;;;;;0.20;0.20;;;29.70;53.00;;;30.26;37.86;95244.41;5011769;28;20576;-80
2022/07/21 09:21:57;;;;;;;0.30;0.30;;;29.80;52.80;;;30.34;38.41;95240.94;5030442;28;20218;-80
2022/07/21 09:24:33;;;;;;;0.25;0.25;;;29.90;52.60;;;30.41;37.93;95230.47;5015226;28;20210;-80
2022/07/21 09:27:20;;;;;;;0.30;0.30;;;29.90;52.70;;;30.46;37.87;95235.75;5017712;28;20221;-80
2022/07/21 09:30:00;;;;;;;0.30;0.30;;;30.00;52.30;;;30.53;37.90;95237.25;5005717;28;20216;-80
2022/07/21 09:32:37;;;;;;;0.30;0.30;;;30.10;52.50;;;30.61;37.59;95231.84;5005673;28;20198;-81
2022/07/21 09:35:14;;;;;;;0.30;0.30;;;30.10;52.20;;;30.70;37.96;95231.91;5015016;28;20206;-80
2022/07/21 09:37:42;;;;;;;0.30;0.30;;;30.20;52.10;;;30.74;36.93;95232.88;4983517;28;20373;-81
2022/07/21 09:40:13;;;;;;;0.30;0.30;;;30.30;51.70;;;30.78;37.15;95233.06;5012025;28;20209;-81
2022/07/21 09:42:44;;;;;;;0.22;0.22;;;30.30;51.20;;;30.82;37.41;95236.72;5011851;28;20235;-80
2022/07/21 09:45:16;;;;;;;0.30;0.30;;;30.40;51.80;;;30.88;37.30;95234.66;4995799;28;20199;-80
2022/07/21 09:47:45;;;;;;;0.30;0.30;;;30.40;51.70;;;30.96;37.29;95223.06;5012132;28;20599;-80
2022/07/21 09:50:16;;;;;;;0.30;0.30;;;30.50;51.80;;;31.06;37.54;95224.69;5014019;28;20198;-79
2022/07/21 09:52:57;;;;;;;0.20;0.20;;;30.60;52.00;;;31.16;37.56;95223.63;5012043;28;20197;-80
2022/07/21 09:55:25;;;;;;;0.28;0.28;;;30.70;52.20;;;31.26;37.32;95228.72;5011153;28;20234;-81
2022/07/21 09:57:55;;;;;;;0.30;0.30;;;30.70;51.40;;;31.35;37.64;95226.00;5023052;28;20232;-80
2022/07/21 10:00:22;;;;;;;0.20;0.20;;;30.80;51.60;;;31.42;37.47;95229.88;5008409;28;20781;-80
2022/07/21 10:02:49;;;;;;;0.30;0.30;;;30.90;51.60;;;31.48;37.46;95233.19;5012125;28;20216;-80
2022/07/21 10:05:20;;;;;;;0.30;0.30;;;31.00;51.40;;;31.59;36.46;95225.56;4996183;28;20200;-80
2022/07/21 10:07:57;;;;;;;0.32;0.32;;;31.10;52.00;;;31.61;36.42;95240.38;5011627;28;20199;-80
2022/07/21 10:10:25;;;;;;;0.25;0.25;;;31.20;50.20;;;31.66;36.59;95233.25;5030012;28;20220;-80
2022/07/21 10:13:12;;;;;;;0.43;0.43;;;31.20;50.50;;;31.68;36.33;95231.81;5027953;28;20207;-80
2022/07/21 10:15:40;;;;;;;0.20;0.20;;;31.30;50.40;;;31.74;36.21;95230.53;5010633;28;20695;-80
2022/07/21 10:18:10;;;;;;;0.30;0.30;;;31.30;50.60;;;31.81;36.52;95226.53;4993813;28;20224;-80
2022/07/21 10:20:42;;;;;;;0.30;0.30;;;31.30;50.70;;;31.85;36.29;95227.47;4994542;28;20292;-80
2022/07/21 10:23:22;;;;;;;0.30;0.30;;;31.40;50.60;;;31.91;36.76;95224.28;5007517;28;20213;-79
2022/07/21 10:25:50;;;;;;;0.30;0.30;;;31.50;50.00;;;31.95;36.29;95227.16;5029712;28;20208;-79
2022/07/21 10:28:22;;;;;;;0.30;0.30;;;31.50;50.70;;;31.97;36.09;95241.22;5009542;28;20194;-80
2022/07/21 10:30:53;;;;;;;0.25;0.25;;;31.60;49.80;;;31.97;36.30;95224.13;5017937;28;20307;-80